Time;durP1;ratioP1;P1;durP2;ratioP2;P2;SDS_P1;SDS_P2;PMS_P1;PMS_P2;Temp;Humidity;BMP_temperature;BMP_pressure;BME280_temperature;BME280_humidity;BME280_pressure;Samples;Min_cycle;Max_cycle;Signal;HPM_P1;HPM_P2
2022/04/14 00:02:06;;;;;;;14.23;8.10;;;;;;;6.51;98.02;95411.16;5096972;28;20391;-73
2022/04/14 00:04:35;;;;;;;17.35;8.77;;;;;;;6.39;99.27;95412.09;5112679;27;20063;-74
2022/04/14 00:07:03;;;;;;;17.85;9.18;;;;;;;6.36;99.96;95420.38;5098313;28;20459;-73
2022/04/14 00:09:29;;;;;;;20.00;10.10;;;;;;;6.40;100.00;95424.09;5103369;28;20382;-73
2022/04/14 00:11:55;;;;;;;16.75;8.45;;;;;;;6.31;100.00;95422.97;5107594;28;20044;-73
2022/04/14 00:14:21;;;;;;;20.67;9.25;;;;;;;6.21;100.00;95425.47;5076520;28;20047;-73
2022/04/14 00:16:47;;;;;;;22.00;10.02;;;;;;;6.18;100.00;95428.56;5082203;28;20493;-74
2022/04/14 00:19:13;;;;;;;16.35;8.65;;;;;;;6.11;100.00;95426.13;5093288;28;20036;-74
2022/04/14 00:21:39;;;;;;;16.02;8.65;;;;;;;6.03;100.00;95422.13;5106363;28;20043;-74
2022/04/14 00:24:05;;;;;;;16.13;7.80;;;;;;;6.01;100.00;95428.63;5105495;28;20467;-75
2022/04/14 00:26:31;;;;;;;16.58;8.63;;;;;;;6.01;100.00;95434.63;5099584;28;20059;-74
2022/04/14 00:28:57;;;;;;;17.65;8.15;;;;;;;5.97;100.00;95432.69;5090383;28;20065;-75
2022/04/14 00:31:22;;;;;;;17.83;8.48;;;;;;;6.01;100.00;95432.00;5111532;28;20035;-74
2022/04/14 00:33:48;;;;;;;13.80;8.10;;;;;;;6.00;100.00;95435.63;5104095;28;20553;-74
2022/04/14 00:36:13;;;;;;;17.77;8.30;;;;;;;6.01;100.00;95439.06;5091784;28;20043;-74
2022/04/14 00:38:39;;;;;;;14.85;8.02;;;;;;;6.02;100.00;95441.44;5095548;28;20048;-74
2022/04/14 00:41:04;;;;;;;16.40;8.00;;;;;;;5.98;100.00;95435.09;5078807;28;20040;-74
2022/04/14 00:43:32;;;;;;;19.33;8.38;;;;;;;6.02;99.52;95444.03;5101968;28;20059;-73
2022/04/14 00:45:59;;;;;;;20.05;8.52;;;;;;;6.05;99.79;95446.16;5079750;28;20047;-73
2022/04/14 00:48:24;;;;;;;16.52;8.43;;;;;;;6.12;99.37;95445.19;5093858;28;20039;-73
2022/04/14 00:50:50;;;;;;;15.02;8.43;;;;;;;6.07;99.80;95445.91;5103968;28;20520;-73
2022/04/14 00:53:16;;;;;;;17.15;8.15;;;;;;;5.99;99.22;95436.69;5105548;28;20036;-73
2022/04/14 00:55:41;;;;;;;16.48;9.30;;;;;;;6.01;99.16;95439.84;5096582;27;20130;-73
2022/04/14 00:58:07;;;;;;;13.95;8.88;;;;;;;5.95;100.00;95439.97;5074180;28;20044;-73
2022/04/14 01:00:32;;;;;;;18.65;9.40;;;;;;;5.87;100.00;95436.75;5092104;27;20040;-73
2022/04/14 01:02:58;;;;;;;19.48;9.13;;;;;;;5.97;100.00;95438.75;5092951;28;20036;-73
2022/04/14 01:05:24;;;;;;;15.88;9.07;;;;;;;5.97;100.00;95433.50;5103899;28;20413;-74
2022/04/14 01:07:51;;;;;;;15.20;8.52;;;;;;;6.00;100.00;95443.47;5103370;28;20040;-73
2022/04/14 01:10:16;;;;;;;15.40;9.20;;;;;;;6.09;99.53;95440.44;5087599;28;20040;-74
2022/04/14 01:12:42;;;;;;;25.88;9.90;;;;;;;6.07;100.00;95441.47;5099788;28;20421;-73
2022/04/14 01:15:15;;;;;;;17.15;9.95;;;;;;;6.13;99.78;95452.00;5103008;28;20436;-74
2022/04/14 01:17:41;;;;;;;19.83;9.00;;;;;;;6.15;99.45;95449.94;5103233;28;20047;-74
2022/04/14 01:20:11;;;;;;;19.00;10.25;;;;;;;6.16;100.00;95452.31;5090657;28;20090;-74
2022/04/14 01:22:43;;;;;;;18.73;9.55;;;;;;;6.23;100.00;95454.75;5094232;28;20501;-73
2022/04/14 01:25:09;;;;;;;21.25;9.93;;;;;;;6.23;100.00;95457.34;5091775;28;20039;-73
2022/04/14 01:27:34;;;;;;;20.15;10.40;;;;;;;6.14;100.00;95453.59;5104545;28;20043;-74
2022/04/14 01:30:01;;;;;;;17.90;9.95;;;;;;;6.07;100.00;95457.16;5107802;28;20048;-73
2022/04/14 01:32:27;;;;;;;18.50;9.90;;;;;;;6.05;100.00;95458.44;5103755;28;20043;-73
2022/04/14 01:34:52;;;;;;;19.88;9.23;;;;;;;6.10;100.00;95462.94;5106873;28;20578;-74
2022/04/14 01:37:18;;;;;;;17.27;9.82;;;;;;;6.00;100.00;95459.16;5104542;28;20047;-73
2022/04/14 01:39:44;;;;;;;18.90;10.18;;;;;;;5.99;100.00;95468.03;5072240;28;20040;-73
2022/04/14 01:42:10;;;;;;;20.52;9.88;;;;;;;5.82;100.00;95464.63;5071911;28;20063;-74
2022/04/14 01:44:36;;;;;;;17.77;10.10;;;;;;;5.96;100.00;95472.91;5089826;28;20047;-74
2022/04/14 01:47:02;;;;;;;20.00;10.75;;;;;;;5.93;100.00;95473.41;5106131;28;20060;-72
2022/04/14 01:49:28;;;;;;;21.58;10.85;;;;;;;5.90;100.00;95474.66;5103712;28;20513;-72
2022/04/14 01:51:53;;;;;;;17.70;10.57;;;;;;;5.95;100.00;95479.97;5085890;28;20121;-72
2022/04/14 01:54:19;;;;;;;22.73;11.07;;;;;;;5.88;100.00;95476.72;5108528;28;20119;-73
2022/04/14 01:56:46;;;;;;;21.85;10.43;;;;;;;5.89;100.00;95473.09;5095280;28;20052;-72
2022/04/14 01:59:11;;;;;;;22.42;10.77;;;;;;;5.91;100.00;95471.03;5096806;28;20046;-72
2022/04/14 02:01:37;;;;;;;21.95;11.02;;;;;;;5.93;100.00;95482.00;5108432;28;20043;-74
2022/04/14 02:04:03;;;;;;;18.95;10.95;;;;;;;6.05;100.00;95480.13;5100561;28;20040;-74
2022/04/14 02:06:29;;;;;;;22.13;11.10;;;;;;;6.08;100.00;95481.47;5102581;28;20119;-74
2022/04/14 02:08:55;;;;;;;21.70;11.38;;;;;;;6.05;100.00;95477.50;5096159;28;20501;-75
2022/04/14 02:11:21;;;;;;;19.15;11.10;;;;;;;5.96;100.00;95473.72;5097832;28;20088;-75
2022/04/14 02:13:46;;;;;;;23.23;11.88;;;;;;;5.82;100.00;95480.28;5098502;28;20039;-75
2022/04/14 02:16:12;;;;;;;20.60;11.57;;;;;;;5.71;100.00;95485.38;5077080;28;20043;-75
2022/04/14 02:18:37;;;;;;;25.58;12.13;;;;;;;5.69;100.00;95478.81;5105423;28;20049;-75
2022/04/14 02:21:03;;;;;;;27.52;11.70;;;;;;;5.73;100.00;95480.72;5099353;28;20068;-75
2022/04/14 02:23:29;;;;;;;23.52;12.20;;;;;;;5.77;100.00;95480.22;5096031;28;20093;-75
2022/04/14 02:25:55;;;;;;;22.55;12.13;;;;;;;5.76;100.00;95473.41;5088315;28;20447;-75
2022/04/14 02:28:20;;;;;;;25.02;12.57;;;;;;;5.76;100.00;95483.84;5106461;28;20562;-72
2022/04/14 02:30:47;;;;;;;20.23;11.98;;;;;;;5.70;100.00;95486.41;5095456;28;20063;-72
2022/04/14 02:33:12;;;;;;;20.15;12.40;;;;;;;5.76;100.00;95489.06;5102264;28;20544;-72
2022/04/14 02:35:38;;;;;;;21.70;12.45;;;;;;;5.70;100.00;95486.41;5089232;28;20040;-72
2022/04/14 02:38:03;;;;;;;21.00;12.63;;;;;;;5.61;100.00;95482.59;5097041;28;20417;-72
2022/04/14 02:40:29;;;;;;;23.05;12.70;;;;;;;5.61;100.00;95487.03;5085502;28;20040;-72
2022/04/14 02:42:56;;;;;;;20.98;11.63;;;;;;;5.54;100.00;95481.97;5101346;28;20054;-73
2022/04/14 02:45:22;;;;;;;24.70;12.48;;;;;;;5.66;100.00;95490.53;5091291;28;20052;-73
2022/04/14 02:47:48;;;;;;;22.83;12.88;;;;;;;5.72;100.00;95486.94;5088786;28;20056;-73
2022/04/14 02:50:14;;;;;;;26.58;13.15;;;;;;;5.68;100.00;95483.22;5089302;28;20100;-73
2022/04/14 02:52:40;;;;;;;25.73;12.73;;;;;;;5.69;100.00;95482.22;5089134;28;20051;-74
2022/04/14 02:55:06;;;;;;;25.38;12.32;;;;;;;5.79;100.00;95483.38;5088946;28;20036;-73
2022/04/14 02:57:32;;;;;;;21.38;11.35;;;;;;;5.79;100.00;95486.00;5100108;28;20119;-73
2022/04/14 02:59:58;;;;;;;22.08;12.00;;;;;;;5.77;100.00;95490.66;5102609;28;20127;-73
2022/04/14 03:02:24;;;;;;;21.48;12.10;;;;;;;5.84;100.00;95491.28;5090287;28;20038;-74
2022/04/14 03:04:49;;;;;;;22.75;11.52;;;;;;;5.75;100.00;95492.72;5093396;28;20042;-73
2022/04/14 03:07:15;;;;;;;20.77;11.52;;;;;;;5.73;100.00;95491.16;5107132;28;20040;-73
2022/04/14 03:09:41;;;;;;;29.40;12.38;;;;;;;5.63;100.00;95491.00;5104055;28;20412;-74
2022/04/14 03:12:07;;;;;;;21.48;11.85;;;;;;;5.64;100.00;95483.94;5080609;28;20497;-75
2022/04/14 03:14:33;;;;;;;26.75;12.07;;;;;;;5.61;100.00;95490.44;5088846;28;20048;-75
2022/04/14 03:16:58;;;;;;;20.90;11.65;;;;;;;5.49;100.00;95490.53;5102435;28;20062;-75
2022/04/14 03:19:25;;;;;;;24.58;12.10;;;;;;;5.41;100.00;95493.50;5092467;28;20436;-75
2022/04/14 03:21:50;;;;;;;23.20;11.80;;;;;;;5.40;100.00;95496.38;5077423;28;20058;-75
2022/04/14 03:24:16;;;;;;;34.05;11.88;;;;;;;5.44;100.00;95494.88;5099624;28;20036;-74
2022/04/14 03:26:41;;;;;;;36.40;12.60;;;;;;;5.49;100.00;95506.19;5095019;28;20044;-75
2022/04/14 03:29:07;;;;;;;24.35;12.10;;;;;;;5.51;100.00;95498.13;5088614;28;20036;-73
2022/04/14 03:31:33;;;;;;;28.40;13.13;;;;;;;5.46;100.00;95490.19;5084698;28;20044;-73
2022/04/14 03:33:58;;;;;;;26.98;13.63;;;;;;;5.61;100.00;95503.50;5095760;28;20050;-73
2022/04/14 03:36:24;;;;;;;22.80;12.75;;;;;;;5.60;100.00;95496.69;5071976;28;20131;-73
2022/04/14 03:38:49;;;;;;;30.50;13.55;;;;;;;5.58;100.00;95496.13;5095230;28;20521;-73
2022/04/14 03:41:15;;;;;;;27.90;12.50;;;;;;;5.60;100.00;95496.69;5093022;28;20078;-73
2022/04/14 03:43:40;;;;;;;24.77;12.93;;;;;;;5.58;100.00;95498.75;5094030;28;20043;-73
2022/04/14 03:46:06;;;;;;;26.17;13.35;;;;;;;5.62;100.00;95505.06;5107299;28;20466;-73
2022/04/14 03:48:32;;;;;;;25.52;12.93;;;;;;;5.63;100.00;95511.88;5102912;28;20075;-73
2022/04/14 03:50:58;;;;;;;22.58;12.23;;;;;;;5.38;100.00;95510.44;5095670;28;20063;-73
2022/04/14 03:53:24;;;;;;;33.67;13.57;;;;;;;5.45;100.00;95514.72;5102758;28;20036;-73
2022/04/14 03:55:49;;;;;;;26.83;13.40;;;;;;;5.59;100.00;95518.59;5108136;27;20071;-73
2022/04/14 03:58:15;;;;;;;33.90;13.38;;;;;;;5.63;100.00;95522.34;5095055;28;20113;-73
2022/04/14 04:00:42;;;;;;;26.17;12.90;;;;;;;5.52;100.00;95520.59;5092603;28;20106;-73
2022/04/14 04:03:11;;;;;;;29.35;13.50;;;;;;;5.55;100.00;95514.88;5092484;28;20040;-73
2022/04/14 04:05:37;;;;;;;22.30;12.68;;;;;;;5.47;100.00;95523.88;5098183;28;20036;-74
2022/04/14 04:08:04;;;;;;;32.03;13.10;;;;;;;5.43;100.00;95525.41;5092096;28;20448;-73
2022/04/14 04:10:30;;;;;;;23.08;13.18;;;;;;;5.42;100.00;95525.63;5092452;28;20055;-73
2022/04/14 04:12:55;;;;;;;27.00;14.07;;;;;;;5.40;100.00;95527.69;5102039;28;20044;-73
2022/04/14 04:15:21;;;;;;;25.08;13.55;;;;;;;5.35;100.00;95523.94;5100643;28;20493;-73
2022/04/14 04:17:47;;;;;;;26.50;12.85;;;;;;;5.34;100.00;95530.22;5105699;28;20505;-73
2022/04/14 04:20:13;;;;;;;23.10;12.82;;;;;;;5.20;100.00;95528.91;5091981;28;20552;-73
2022/04/14 04:22:40;;;;;;;27.38;14.18;;;;;;;5.30;100.00;95534.31;5092014;28;20043;-73
2022/04/14 04:25:06;;;;;;;31.42;13.68;;;;;;;5.27;100.00;95539.19;5074761;28;20072;-72
2022/04/14 04:27:32;;;;;;;28.35;14.43;;;;;;;5.30;100.00;95533.50;5083650;28;20454;-73
2022/04/14 04:29:58;;;;;;;27.75;13.82;;;;;;;5.17;100.00;95534.59;5092987;28;20044;-72
2022/04/14 04:32:23;;;;;;;28.55;14.13;;;;;;;5.22;100.00;95536.53;5092736;28;20032;-73
2022/04/14 04:34:49;;;;;;;29.95;13.50;;;;;;;5.23;100.00;95538.91;5101920;28;20067;-73
2022/04/14 04:37:15;;;;;;;30.80;14.45;;;;;;;5.07;100.00;95539.63;5091645;28;20047;-73
2022/04/14 04:39:41;;;;;;;27.73;13.40;;;;;;;5.07;100.00;95539.63;5089889;28;20039;-73
2022/04/14 04:42:07;;;;;;;31.15;14.05;;;;;;;5.08;100.00;95546.44;5111443;28;20177;-73
2022/04/14 04:44:32;;;;;;;28.88;14.48;;;;;;;5.11;100.00;95546.75;5075318;28;20036;-73
2022/04/14 04:46:58;;;;;;;29.77;13.80;;;;;;;5.30;100.00;95549.97;5091638;28;20575;-72
2022/04/14 04:49:23;;;;;;;26.20;13.60;;;;;;;5.49;100.00;95547.16;5090490;28;20081;-72
2022/04/14 04:51:49;;;;;;;30.27;13.80;;;;;;;5.31;100.00;95551.53;5107515;28;20127;-73
2022/04/14 04:54:14;;;;;;;30.45;14.05;;;;;;;5.24;100.00;95550.91;5089801;28;20426;-72
2022/04/14 04:56:40;;;;;;;30.63;14.68;;;;;;;5.24;100.00;95550.91;5091047;28;20320;-73
2022/04/14 04:59:06;;;;;;;31.52;15.63;;;;;;;5.38;100.00;95556.63;5074618;28;20040;-72
2022/04/14 05:01:31;;;;;;;30.30;15.60;;;;;;;5.38;100.00;95552.19;5098204;28;20118;-72
2022/04/14 05:03:57;;;;;;;29.23;14.52;;;;;;;5.40;100.00;95553.78;5106369;28;20047;-73
2022/04/14 05:06:22;;;;;;;31.55;15.13;;;;;;;5.44;100.00;95554.91;5103203;28;20422;-73
2022/04/14 05:08:48;;;;;;;32.90;14.38;;;;;;;5.49;100.00;95557.59;5090957;28;20111;-73
2022/04/14 05:11:14;;;;;;;28.85;14.32;;;;;;;5.52;100.00;95557.13;5098550;28;22209;-73
2022/04/14 05:13:39;;;;;;;25.63;13.07;;;;;;;5.43;100.00;95563.75;5097115;28;20785;-73
2022/04/14 05:16:06;;;;;;;35.30;15.73;;;;;;;5.36;100.00;95564.69;5096527;28;20561;-73
2022/04/14 05:18:33;;;;;;;27.42;14.45;;;;;;;5.42;100.00;95572.63;5092316;28;20044;-73
2022/04/14 05:20:58;;;;;;;31.05;15.73;;;;;;;5.56;100.00;95568.69;5098051;28;20067;-73
2022/04/14 05:23:23;;;;;;;26.75;14.52;;;;;;;5.68;100.00;95566.78;5089147;28;20090;-73
2022/04/14 05:25:49;;;;;;;32.85;14.50;;;;;;;5.80;100.00;95568.53;5102619;28;20035;-73
2022/04/14 05:28:15;;;;;;;31.45;14.48;;;;;;;5.77;100.00;95566.41;5084781;28;20048;-73
2022/04/14 05:30:40;;;;;;;23.70;14.32;;;;;;;5.73;100.00;95564.25;5084898;27;20044;-74
2022/04/14 05:33:10;;;;;;;26.58;14.05;;;;;;;5.81;100.00;95570.13;5101329;28;20042;-70
2022/04/14 05:35:37;;;;;;;30.55;14.85;;;;;;;5.90;100.00;95573.91;5102012;28;20040;-72
2022/04/14 05:38:04;;;;;;;33.72;15.05;;;;;;;6.06;100.00;95570.53;5086420;28;20103;-73
2022/04/14 05:40:29;;;;;;;34.83;15.57;;;;;;;6.37;100.00;95568.34;5104383;28;20040;-71
2022/04/14 05:42:55;;;;;;;39.65;15.98;;;;;;;6.52;100.00;95569.59;5096355;28;20043;-72
2022/04/14 05:45:21;;;;;;;31.67;15.55;;;;;;;6.75;100.00;95566.75;5093744;28;20089;-72
2022/04/14 05:47:46;;;;;;;34.03;17.30;;;;;;;7.21;100.00;95570.91;5097575;28;20047;-72
2022/04/14 05:50:12;;;;;;;34.30;16.83;;;;;;;7.63;100.00;95572.91;5096337;28;20048;-72
2022/04/14 05:52:38;;;;;;;33.83;16.15;;;;;;;7.97;100.00;95568.22;5096138;28;20395;-71
2022/04/14 05:55:04;;;;;;;32.65;15.80;;;;;;;8.35;100.00;95570.81;5084555;28;20051;-71
2022/04/14 05:57:29;;;;;;;28.38;15.43;;;;;;;8.64;100.00;95571.25;5080405;28;20740;-71
2022/04/14 05:59:56;;;;;;;33.83;15.45;;;;;;;8.79;100.00;95565.31;5097475;28;20101;-70
2022/04/14 06:02:21;;;;;;;33.55;15.00;;;;;;;8.95;100.00;95567.97;5105760;28;20456;-73
2022/04/14 06:04:47;;;;;;;32.00;14.52;;;;;;;9.09;100.00;95571.69;5090526;28;20082;-71
2022/04/14 06:07:12;;;;;;;25.95;14.57;;;;;;;9.46;98.49;95570.75;5098596;28;20044;-71
2022/04/14 06:09:38;;;;;;;31.25;14.07;;;;;;;9.70;97.42;95575.50;5105756;28;20048;-71
2022/04/14 06:12:04;;;;;;;29.40;13.68;;;;;;;9.87;96.05;95570.78;5107853;28;20036;-71
2022/04/14 06:14:30;;;;;;;34.78;14.98;;;;;;;10.15;93.41;95566.03;5092771;28;20036;-70
2022/04/14 06:16:56;;;;;;;29.17;13.82;;;;;;;10.29;93.13;95576.81;5090582;28;20581;-71
2022/04/14 06:19:21;;;;;;;25.55;13.50;;;;;;;10.55;90.65;95574.16;5099816;28;20040;-73
2022/04/14 06:21:47;;;;;;;29.05;14.00;;;;;;;10.70;90.23;95571.50;5108707;28;20100;-71
2022/04/14 06:24:13;;;;;;;28.23;14.13;;;;;;;10.91;89.67;95577.44;5092116;28;20420;-72
2022/04/14 06:26:38;;;;;;;27.80;13.35;;;;;;;10.85;89.09;95572.50;5089335;28;20040;-72
2022/04/14 06:29:04;;;;;;;24.60;12.60;;;;;;;11.15;88.03;95573.41;5102431;28;20097;-72
2022/04/14 06:31:30;;;;;;;27.27;13.13;;;;;;;11.10;88.30;95574.22;5094217;28;20068;-72
2022/04/14 06:33:55;;;;;;;22.40;12.38;;;;;;;11.25;86.96;95579.41;5093415;27;20050;-74
2022/04/14 06:36:21;;;;;;;26.80;12.85;;;;;;;11.18;87.35;95581.56;5104134;27;20039;-74
2022/04/14 06:38:46;;;;;;;32.22;13.95;;;;;;;11.46;85.97;95581.94;5109599;27;20040;-72
2022/04/14 06:41:12;;;;;;;24.95;12.30;;;;;;;11.71;84.13;95582.81;5097748;28;20048;-71
2022/04/14 06:43:37;;;;;;;24.05;12.63;;;;;;;11.85;84.13;95578.53;5090192;28;20044;-71
2022/04/14 06:46:03;;;;;;;23.00;11.68;;;;;;;12.05;82.73;95587.38;5092660;28;20044;-72
2022/04/14 06:48:31;;;;;;;26.58;12.23;;;;;;;11.93;84.34;95585.06;5071194;28;20052;-73
2022/04/14 06:51:00;;;;;;;25.92;12.15;;;;;;;11.99;82.77;95588.47;5097997;28;20043;-71
2022/04/14 06:53:26;;;;;;;23.13;12.65;;;;;;;12.04;82.37;95588.41;5098261;28;20560;-72
2022/04/14 06:55:53;;;;;;;26.02;12.25;;;;;;;11.98;82.64;95592.16;5098705;27;20122;-71
2022/04/14 06:58:20;;;;;;;26.38;12.88;;;;;;;12.04;82.32;95591.06;5106984;28;20500;-72
2022/04/14 07:00:46;;;;;;;23.30;11.65;;;;;;;12.15;82.23;95591.78;5090072;28;20044;-71
2022/04/14 07:03:11;;;;;;;27.75;13.07;;;;;;;12.32;81.31;95586.09;5105923;28;20047;-70
2022/04/14 07:05:37;;;;;;;24.30;12.77;;;;;;;12.26;81.38;95588.75;5099591;28;20047;-73
2022/04/14 07:08:02;;;;;;;23.67;12.45;;;;;;;12.38;82.30;95587.59;5109937;28;20114;-70
2022/04/14 07:10:28;;;;;;;28.30;14.45;;;;;;;12.63;78.10;95592.63;5103123;27;20127;-72
2022/04/14 07:12:55;;;;;;;29.85;13.40;;;;;;;12.54;79.42;95594.34;5098094;28;20078;-71
2022/04/14 07:15:21;;;;;;;27.63;13.02;;;;;;;12.60;78.74;95595.06;5110281;27;20035;-71
2022/04/14 07:17:47;;;;;;;35.65;14.15;;;;;;;12.79;78.16;95600.41;5112822;27;20096;-70
2022/04/14 07:20:13;;;;;;;32.90;13.30;;;;;;;12.70;78.81;95588.88;5101128;28;20043;-72
2022/04/14 07:22:49;;;;;;;33.70;14.32;;;;;;;12.97;76.30;95597.03;5094831;28;20051;-71
2022/04/14 07:25:15;;;;;;;34.53;14.18;;;;;;;13.13;75.77;95591.53;5095149;28;20773;-72
2022/04/14 07:27:42;;;;;;;33.42;13.90;;;;;;;13.09;75.86;95593.22;5095037;28;20044;-73
2022/04/14 07:30:08;;;;;;;40.83;14.35;;;;;;;13.21;74.36;95598.84;5085446;28;20489;-74
2022/04/14 07:32:39;;;;;;;36.65;14.85;;;;;;;13.20;75.07;95599.91;5108848;28;20035;-75
2022/04/14 07:35:05;;;;;;;30.42;15.20;;;;;;;13.22;74.49;95603.06;5105286;28;20088;-74
2022/04/14 07:37:31;;;;;;;33.65;15.10;;;;;;;13.52;73.16;95596.63;5094694;28;20052;-74
2022/04/14 07:39:57;;;;;;;36.33;15.43;;;;;;;13.55;73.30;95599.75;5091486;28;20047;-73
2022/04/14 07:42:33;;;;;;;29.10;14.45;;;;;;;13.59;73.23;95606.84;5078200;28;20039;-73
2022/04/14 07:44:59;;;;;;;34.63;15.38;;;;;;;13.94;71.60;95612.69;5105543;28;20402;-71
2022/04/14 07:47:24;;;;;;;34.42;15.02;;;;;;;14.22;70.81;95602.19;5072472;28;20049;-72
2022/04/14 07:49:50;;;;;;;32.92;15.23;;;;;;;14.19;70.18;95610.72;5092552;28;20512;-72
2022/04/14 07:52:15;;;;;;;36.47;15.65;;;;;;;14.12;70.27;95602.38;5088779;28;20111;-73
2022/04/14 07:54:41;;;;;;;37.28;14.90;;;;;;;14.46;69.32;95606.59;5105010;28;20104;-72
2022/04/14 07:57:06;;;;;;;42.25;15.52;;;;;;;14.53;69.55;95602.47;5107062;28;20048;-71
2022/04/14 07:59:32;;;;;;;35.80;14.98;;;;;;;14.39;69.12;95606.94;5090700;28;20040;-73
2022/04/14 08:02:00;;;;;;;33.10;14.98;;;;;;;14.77;67.92;95606.06;5099363;28;20044;-74
2022/04/14 08:04:26;;;;;;;39.00;15.25;;;;;;;14.76;68.23;95609.81;5098729;28;20044;-74
2022/04/14 08:06:53;;;;;;;33.15;14.45;;;;;;;14.77;68.08;95612.16;5079580;28;20039;-74
2022/04/14 08:09:19;;;;;;;29.90;15.50;;;;;;;14.68;67.93;95609.41;5094804;28;20497;-73
2022/04/14 08:11:45;;;;;;;37.38;14.40;;;;;;;14.87;67.11;95616.47;5097661;28;20039;-74
2022/04/14 08:14:11;;;;;;;30.98;14.93;;;;;;;15.03;67.01;95623.06;5074100;28;20406;-72
2022/04/14 08:16:37;;;;;;;29.60;14.45;;;;;;;14.87;67.57;95621.78;5077108;28;20048;-74
2022/04/14 08:19:02;;;;;;;44.28;17.58;;;;;;;14.81;65.21;95628.22;5071251;28;20036;-73
2022/04/14 08:21:28;;;;;;;44.22;16.60;;;;;;;14.65;67.30;95625.88;5076296;28;20558;-72
2022/04/14 08:23:53;;;;;;;36.30;14.77;;;;;;;14.62;67.08;95629.09;5081310;28;20043;-70
2022/04/14 08:26:20;;;;;;;38.70;15.82;;;;;;;14.82;67.14;95635.09;5102857;28;20118;-71
2022/04/14 08:28:46;;;;;;;37.05;15.48;;;;;;;14.94;64.82;95631.97;5105828;28;20052;-70
2022/04/14 08:31:12;;;;;;;36.45;15.38;;;;;;;15.18;64.51;95637.09;5084697;28;20044;-71
2022/04/14 08:33:39;;;;;;;33.92;15.73;;;;;;;15.15;63.46;95638.44;5092250;28;20054;-73
2022/04/14 08:36:07;;;;;;;37.00;15.57;;;;;;;15.35;62.86;95631.97;5097191;28;20051;-71
2022/04/14 08:38:33;;;;;;;33.65;14.45;;;;;;;15.33;64.21;95635.97;5106391;28;20064;-73
2022/04/14 08:41:02;;;;;;;37.40;15.27;;;;;;;15.59;62.08;95636.25;5091641;28;20473;-72
2022/04/14 08:43:33;;;;;;;33.63;15.10;;;;;;;15.48;62.39;95635.69;5091183;28;20043;-72
2022/04/14 08:45:59;;;;;;;38.60;16.30;;;;;;;15.39;62.14;95640.91;5097402;28;20036;-72
2022/04/14 08:48:26;;;;;;;33.63;14.57;;;;;;;15.37;62.32;95640.41;5111723;28;20048;-72
2022/04/14 08:50:53;;;;;;;35.53;14.93;;;;;;;15.68;62.02;95629.16;5106148;28;20040;-72
2022/04/14 08:53:20;;;;;;;43.28;15.30;;;;;;;15.81;61.87;95635.53;5091750;28;20043;-72
2022/04/14 08:55:46;;;;;;;35.00;14.35;;;;;;;15.81;62.85;95637.41;5081326;28;20074;-71
2022/04/14 08:58:14;;;;;;;37.75;16.05;;;;;;;15.94;61.57;95636.59;5094783;28;20040;-72
2022/04/14 09:00:40;;;;;;;32.85;15.55;;;;;;;16.03;61.01;95640.09;5091596;28;20096;-72
2022/04/14 09:03:06;;;;;;;33.00;14.82;;;;;;;15.99;60.23;95633.03;5092829;28;20062;-72
2022/04/14 09:05:32;;;;;;;33.78;14.88;;;;;;;16.18;59.89;95630.22;5091178;28;20437;-72
2022/04/14 09:07:57;;;;;;;30.83;15.20;;;;;;;16.36;58.98;95631.88;5098469;28;20036;-72
2022/04/14 09:10:23;;;;;;;30.60;13.45;;;;;;;16.34;59.72;95638.59;5100119;28;20046;-72
2022/04/14 09:12:50;;;;;;;33.33;14.57;;;;;;;16.43;60.38;95637.56;5109144;28;20116;-72
2022/04/14 09:15:16;;;;;;;33.58;14.48;;;;;;;16.65;58.95;95638.63;5110621;28;20043;-71
2022/04/14 09:17:42;;;;;;;33.70;14.52;;;;;;;16.56;59.42;95629.81;5093194;28;20047;-72
2022/04/14 09:20:26;;;;;;;34.33;13.65;;;;;;;17.03;56.25;95632.88;5096922;28;20497;-72
2022/04/14 09:23:13;;;;;;;30.50;14.20;;;;;;;16.79;57.14;95634.00;5073002;28;20040;-71
2022/04/14 09:25:39;;;;;;;30.65;13.15;;;;;;;16.86;55.73;95632.78;5075071;28;20123;-72
2022/04/14 09:28:12;;;;;;;32.80;13.98;;;;;;;16.76;56.75;95631.94;5099425;28;20047;-72
2022/04/14 09:30:38;;;;;;;32.60;13.48;;;;;;;16.90;56.32;95633.75;5111636;28;20110;-72
2022/04/14 09:33:04;;;;;;;35.10;14.90;;;;;;;16.98;55.67;95630.34;5102794;28;20052;-72
2022/04/14 09:35:33;;;;;;;32.22;13.38;;;;;;;16.84;57.58;95629.63;5102351;28;20058;-72
2022/04/14 09:38:06;;;;;;;29.88;12.88;;;;;;;16.92;57.84;95628.91;5108570;28;20385;-72
2022/04/14 09:40:35;;;;;;;31.08;13.15;;;;;;;16.99;56.39;95631.13;5084981;28;20039;-72
2022/04/14 09:43:01;;;;;;;28.20;12.95;;;;;;;17.21;54.99;95627.59;5072957;28;20040;-73
2022/04/14 09:45:28;;;;;;;34.35;11.55;;;;;;;17.29;53.57;95630.28;5090982;28;20503;-72
2022/04/14 09:48:00;;;;;;;32.05;13.02;;;;;;;17.29;53.84;95624.19;5074793;28;20032;-71
2022/04/14 09:50:39;;;;;;;25.05;11.65;;;;;;;17.38;52.75;95626.88;5105621;28;20040;-72
2022/04/14 09:53:06;;;;;;;29.77;11.98;;;;;;;17.63;52.31;95628.03;5101714;28;20040;-72
2022/04/14 09:55:40;;;;;;;28.08;12.30;;;;;;;17.70;52.72;95625.69;5075953;28;20046;-72
2022/04/14 09:58:11;;;;;;;28.63;12.85;;;;;;;17.75;52.63;95620.19;5101580;28;20039;-70
2022/04/14 10:00:40;;;;;;;25.83;11.57;;;;;;;18.03;52.98;95619.94;5110627;28;20043;-71
2022/04/14 10:03:37;;;;;;;26.92;12.40;;;;;;;18.21;52.30;95617.25;5100833;28;20036;-73
2022/04/14 10:06:06;;;;;;;33.70;13.85;;;;;;;18.43;50.49;95609.06;5105288;28;20070;-72
2022/04/14 10:08:51;;;;;;;35.20;12.15;;;;;;;18.72;51.93;95615.56;5090458;28;20119;-73
2022/04/14 10:11:24;;;;;;;22.65;11.77;;;;;;;18.91;49.61;95609.09;5090628;27;20044;-72
2022/04/14 10:13:50;;;;;;;25.92;10.90;;;;;;;19.13;49.78;95606.16;5076373;28;20040;-73
2022/04/14 10:16:21;;;;;;;27.63;11.13;;;;;;;19.37;48.52;95607.44;5102137;27;20052;-72
2022/04/14 10:18:47;;;;;;;27.80;11.13;;;;;;;19.71;48.41;95605.63;5104044;27;20043;-72
2022/04/14 10:21:14;;;;;;;22.15;11.32;;;;;;;19.92;46.36;95612.91;5093134;28;20058;-72
2022/04/14 10:23:40;;;;;;;24.00;12.32;;;;;;;20.30;45.87;95607.41;5091856;28;20027;-73
2022/04/14 10:26:07;;;;;;;24.63;11.73;;;;;;;20.03;45.71;95609.50;5106572;27;20043;-73
2022/04/14 10:28:35;;;;;;;23.73;11.73;;;;;;;21.02;44.79;95609.78;5092550;28;20114;-74
2022/04/14 10:31:01;;;;;;;23.45;12.82;;;;;;;21.04;44.02;95601.41;5105272;28;20044;-75
2022/04/14 10:33:28;;;;;;;22.33;11.38;;;;;;;21.48;42.61;95604.28;5106786;28;20096;-75
2022/04/14 10:35:53;;;;;;;26.27;12.38;;;;;;;22.21;42.31;95607.91;5078774;28;20557;-74
2022/04/14 10:38:34;;;;;;;30.98;12.18;;;;;;;22.44;40.95;95593.94;5092056;28;20036;-75
2022/04/14 10:41:13;;;;;;;25.08;12.60;;;;;;;23.08;40.31;95604.72;5095940;28;20036;-75
2022/04/14 10:43:45;;;;;;;26.50;13.30;;;;;;;22.51;40.54;95594.13;5076518;28;20509;-75
2022/04/14 10:46:16;;;;;;;26.42;12.10;;;;;;;22.73;40.05;95598.16;5089342;28;20559;-75
2022/04/14 10:48:46;;;;;;;23.05;12.80;;;;;;;22.54;39.54;95601.50;5090727;28;20040;-75
2022/04/14 10:51:20;;;;;;;26.63;12.15;;;;;;;23.51;39.16;95594.97;5094012;28;20046;-74
2022/04/14 10:53:50;;;;;;;22.30;12.05;;;;;;;23.91;37.86;95596.59;5093158;28;20040;-73
2022/04/14 10:56:34;;;;;;;21.00;10.85;;;;;;;24.42;37.20;95597.56;5083732;28;20118;-74
2022/04/14 10:59:02;;;;;;;20.65;11.88;;;;;;;24.03;39.19;95587.63;5106352;28;20535;-73
2022/04/14 11:01:46;;;;;;;28.42;12.90;;;;;;;24.79;37.30;95589.00;5101799;27;20047;-74
2022/04/14 11:04:33;;;;;;;25.75;13.38;;;;;;;24.17;37.03;95592.50;5091337;28;20462;-73
2022/04/14 11:07:15;;;;;;;22.77;12.75;;;;;;;24.75;35.98;95585.47;5097161;28;20040;-74
2022/04/14 11:09:52;;;;;;;21.73;12.35;;;;;;;23.84;37.06;95596.44;5090926;28;20043;-73
2022/04/14 11:12:24;;;;;;;24.02;11.77;;;;;;;24.27;38.73;95597.28;5088984;28;20044;-72
2022/04/14 11:15:04;;;;;;;25.55;12.35;;;;;;;23.04;38.90;95587.75;5096691;28;20469;-73
2022/04/14 11:17:48;;;;;;;19.85;12.23;;;;;;;22.82;38.85;95584.56;5103936;28;20043;-71
2022/04/14 11:20:15;;;;;;;;;;;;;;;23.74;39.39;95591.63;5105028;28;20039;-73